Latest Weather Observations for Lameroo AWS

IDS60801

Issued at 11:01 pm CDT Wednesday 10 February 2016 (issued every 30 minutes, with the page automatically refreshed every 10 minutes)

About weather observations | Map of weather stations | Latest weather observations for SA | Other Formats
Station Details ID: 025562 Name: AUSTIN PLAINS Lat: -35.38 Lon: 140.54 Height: 110.08 m
Data from the previous 72 hours. | See also: Recent months at Lameroo AWS
Date/Time
CDT
Temp
°C
App
Temp
°C
Dew
Point
Rel
Hum
%
Delta-T
°C
Wind Press
QNH
hPa
Press
MSL
hPa
Rain
since 9 am
mm
Dir
 
Spd
km/h
Gust
km/h
Spd
kts
Gust
kts
10/11:00pm 22.0 17.7 9.2 44 6.9 S 22 26 12 14 1014.1 1013.6 0.0
10/10:30pm 22.9 18.4 8.6 40 7.6 S 22 28 12 15 1014.0 1013.5 0.0
10/10:00pm 23.2 19.3 9.6 42 7.4 SSW 20 26 11 14 1014.0 1013.5 0.0
10/09:30pm 24.2 20.0 9.8 40 7.9 SSW 22 26 12 14 1013.6 1013.2 0.0
10/09:00pm 25.1 21.0 10.2 39 8.3 SSW 22 28 12 15 1013.5 1013.1 0.0
10/08:30pm 26.6 21.8 10.3 36 9.2 SSW 26 33 14 18 1013.2 1012.8 0.0
10/08:00pm 29.6 24.0 1.1 16 13.9 S 20 26 11 14 1013.0 1012.6 0.0
10/07:30pm 30.6 24.1 0.1 14 14.7 SSE 24 32 13 17 1012.6 1012.2 0.0
10/07:00pm 32.3 26.0 -0.7 12 15.9 S 22 30 12 16 1012.3 1011.9 0.0
10/06:30pm 33.3 26.6 -1.1 11 16.6 SSW 24 35 13 19 1012.0 1011.6 0.0
10/06:00pm 33.4 27.9 -2.3 10 16.9 SSW 17 26 9 14 1011.8 1011.4 0.0
10/05:30pm 34.3 28.3 -1.7 10 17.3 SSW 20 30 11 16 1011.7 1011.3 0.0
10/05:00pm 33.3 28.1 -2.4 10 16.8 SSW 15 30 8 16 1011.7 1011.3 0.0
10/04:30pm 33.8 27.7 -2.0 10 17.1 SW 20 28 11 15 1011.8 1011.4 0.0
10/04:00pm 33.3 28.1 0.1 12 16.3 SW 17 26 9 14 1011.9 1011.5 0.0
10/03:30pm 33.9 29.1 0.5 12 16.6 SSW 15 26 8 14 1012.0 1011.6 0.0
10/03:00pm 32.5 27.9 1.6 14 15.5 SSW 15 28 8 15 1012.4 1012.0 0.0
10/02:30pm 33.2 28.5 3.1 15 15.5 WSW 17 32 9 17 1012.6 1012.2 0.0
10/02:00pm 32.9 30.1 2.9 15 15.4 SSE 7 26 4 14 1013.0 1012.6 0.0
10/01:30pm 33.4 29.8 5.0 17 15.1 SSW 13 26 7 14 1013.3 1012.9 0.0
10/01:00pm 31.9 28.8 5.4 19 14.1 S 11 19 6 10 1013.9 1013.4 0.0
10/12:30pm 30.9 28.7 6.0 21 13.3 SE 7 20 4 11 1014.2 1013.7 0.0
10/12:00pm 29.7 26.8 6.4 23 12.4 SE 11 17 6 9 1014.7 1014.2 0.0
10/11:30am 29.6 26.4 6.9 24 12.2 SE 13 20 7 11 1015.0 1014.5 0.0
10/11:00am 28.2 24.7 7.4 27 11.2 SE 15 22 8 12 1015.3 1014.8 0.0
10/10:30am 27.5 24.8 8.9 31 10.2 SE 13 20 7 11 1015.5 1015.0 0.0
10/10:00am 25.8 24.0 9.6 36 9.0 SSE 9 15 5 8 1015.6 1015.1 0.0
10/09:30am 23.4 22.3 10.8 45 7.0 SSW 7 11 4 6 1015.7 1015.2 0.0
10/09:00am 22.0 20.6 10.8 49 6.2 S 9 13 5 7 1015.8 1015.3 0.0
10/08:30am 20.1 18.3 10.8 55 5.1 SSE 11 15 6 8 1015.8 1015.3 0.0
10/08:00am 18.3 16.5 10.9 62 4.0 SSE 11 17 6 9 1015.2 1014.7 0.0
10/07:30am 15.7 13.2 10.9 73 2.6 S 15 19 8 10 1014.9 1014.4 0.0
10/07:00am 14.2 12.3 10.6 79 1.9 S 11 13 6 7 1014.6 1014.1 0.0
10/06:30am 13.9 11.6 10.3 79 1.9 S 13 15 7 8 1014.3 1013.8 0.0
10/06:00am 14.1 12.5 10.1 77 2.1 SSW 9 13 5 7 1014.4 1013.9 0.0
10/05:30am 14.8 13.3 10.4 75 2.3 SSE 9 13 5 7 1014.0 1013.5 0.0
10/05:00am 15.5 13.2 10.3 71 2.7 S 13 17 7 9 1013.9 1013.4 0.0
10/04:30am 15.9 12.5 10.4 70 2.9 S 19 20 10 11 1014.0 1013.5 0.0
10/04:00am 16.0 12.5 10.1 68 3.1 S 19 24 10 13 1013.8 1013.3 0.0
10/03:30am 16.0 12.1 9.4 65 3.4 S 20 24 11 13 1013.6 1013.2 0.0
10/03:00am 16.1 12.0 8.6 61 3.8 S 20 24 11 13 1013.6 1013.2 0.0
10/02:30am 16.1 12.3 7.6 57 4.3 S 17 19 9 10 1014.1 1013.6 0.0
10/02:00am 15.6 12.0 6.9 56 4.3 SSW 15 17 8 9 1014.6 1014.1 0.0
10/01:30am 16.4 13.6 6.8 53 4.8 SW 11 13 6 7 1014.8 1014.3 0.0
10/01:00am 16.6 13.8 7.0 53 4.8 SW 11 13 6 7 1015.2 1014.7 0.0
10/12:30am 17.6 14.1 7.4 51 5.2 SSW 15 17 8 9 1015.3 1014.8 0.0
10/12:00am 19.2 15.5 7.9 48 5.8 SSW 17 19 9 10 1015.5 1015.0 0.0
 
Date/Time
CDT
Temp
°C
App
Temp
°C
Dew
Point
Rel
Hum
%
Delta-T
°C
Wind Press
QNH
hPa
Press
MSL
hPa
Rain
since 9 am
mm
Dir
 
Spd
km/h
Gust
km/h
Spd
kts
Gust
kts
09/11:30pm 20.1 16.5 8.4 47 6.1 SSW 17 19 9 10 1015.6 1015.1 0.0
09/11:00pm 20.4 17.3 9.0 48 6.0 SSW 15 17 8 9 1015.8 1015.3 0.0
09/10:30pm 21.8 18.4 9.3 45 6.7 S 17 19 9 10 1015.8 1015.3 0.0
09/10:00pm 22.7 19.4 9.5 43 7.2 SSW 17 19 9 10 1015.9 1015.4 0.0
09/09:30pm 23.8 20.4 9.0 39 8.0 SSW 17 20 9 11 1015.9 1015.4 0.0
09/09:00pm 25.2 21.6 8.2 34 9.1 SSW 17 19 9 10 1015.5 1015.0 0.0
09/08:30pm 26.8 22.2 5.7 26 10.9 S 19 20 10 11 1015.2 1014.7 0.0
09/08:00pm 28.8 23.3 2.1 18 13.2 SSW 20 24 11 13 1015.3 1014.8 0.0
09/07:30pm 31.1 24.2 -2.8 11 15.6 SW 24 28 13 15 1015.3 1014.8 0.0
09/07:00pm 32.2 25.9 -0.8 12 15.9 SW 22 30 12 16 1015.1 1014.6 0.0
09/06:30pm 32.9 27.1 -0.2 12 16.1 WSW 20 26 11 14 1015.1 1014.6 0.0
09/06:00pm 33.8 28.3 0.5 12 16.5 WSW 19 28 10 15 1015.1 1014.6 0.0
09/05:30pm 33.7 28.9 0.4 12 16.5 SSW 15 24 8 13 1015.2 1014.7 0.0
09/05:00pm 34.0 28.9 -1.9 10 17.2 WSW 15 32 8 17 1015.4 1014.9 0.0
09/04:30pm 33.4 29.2 -1.0 11 16.6 W 11 17 6 9 1015.7 1015.2 0.0
09/04:00pm 33.8 28.9 -0.7 11 16.8 WSW 15 22 8 12 1016.0 1015.5 0.0
09/03:30pm 32.8 27.9 -0.3 12 16.1 WSW 15 22 8 12 1016.4 1015.9 0.0
09/03:00pm 32.4 27.9 -0.6 12 15.9 WSW 13 24 7 13 1016.8 1016.4 0.0
09/02:30pm 32.1 28.6 1.3 14 15.3 SSW 9 22 5 12 1017.3 1016.9 0.0
09/02:00pm 31.4 28.4 0.7 14 15.0 E 6 13 3 7 1017.6 1017.2 0.0
09/01:30pm 30.2 27.1 1.6 16 14.1 W 7 15 4 8 1017.9 1017.5 0.0
09/01:00pm 29.1 25.8 2.4 18 13.3 SSE 9 20 5 11 1018.4 1018.0 0.0
09/12:30pm 28.7 25.6 3.5 20 12.7 WSW 9 15 5 8 1018.8 1018.4 0.0
09/12:00pm 27.5 25.5 4.5 23 11.7 S 4 11 2 6 1019.3 1018.9 0.0
09/11:30am 26.6 24.4 5.5 26 10.9 SSE 6 11 3 6 1019.7 1019.3 0.0
09/11:00am 26.1 24.1 6.2 28 10.4 E 6 11 3 6 1020.1 1019.7 0.0
09/10:30am 24.3 21.7 6.1 31 9.3 ESE 9 15 5 8 1020.1 1019.7 0.0
09/10:00am 22.4 20.0 8.5 41 7.4 ESE 11 17 6 9 1020.3 1019.9 0.0
09/09:30am 20.5 18.0 9.7 50 5.8 ESE 13 19 7 10 1020.6 1020.2 0.0
09/09:00am 19.6 17.1 11.1 58 4.7 ESE 15 20 8 11 1020.5 1020.1 0.0
09/08:30am 17.1 14.6 11.2 68 3.2 ESE 15 19 8 10 1020.6 1020.2 0.0
09/08:00am 16.0 12.8 11.2 73 2.6 ESE 19 22 10 12 1020.4 1020.0 0.0
09/07:30am 14.6 12.1 11.0 79 1.9 SE 15 17 8 9 1020.1 1019.7 0.0
09/07:00am 13.4 11.1 10.6 83 1.5 SE 13 15 7 8 1020.1 1019.7 0.0
09/06:30am 13.1 10.8 10.3 83 1.5 SE 13 17 7 9 1019.8 1019.4 0.0
09/06:00am 13.4 11.0 10.2 81 1.7 SE 13 15 7 8 1019.6 1019.2 0.0
09/05:30am 13.7 11.7 10.1 79 1.9 SE 11 15 6 8 1019.4 1019.0 0.0
09/05:00am 14.4 12.0 10.0 75 2.3 SE 13 15 7 8 1019.4 1019.0 0.0
09/04:30am 15.1 11.9 10.1 72 2.6 SE 17 22 9 12 1019.3 1018.9 0.0
09/04:00am 15.5 12.3 9.8 69 3.0 SE 17 20 9 11 1019.3 1018.9 0.0
09/03:30am 16.2 13.0 9.8 66 3.4 SE 17 22 9 12 1019.4 1019.0 0.0
09/03:00am 16.9 13.2 9.6 62 3.8 SE 19 24 10 13 1019.5 1019.1 0.0
09/02:30am 17.5 13.5 9.2 58 4.3 SE 20 26 11 14 1019.5 1019.1 0.0
09/02:00am 18.3 14.2 8.8 54 5.0 SE 20 28 11 15 1019.7 1019.3 0.0
09/01:30am 19.2 15.1 8.5 50 5.6 SE 20 26 11 14 1019.7 1019.3 0.0
09/01:00am 20.0 15.4 8.0 46 6.2 SSE 22 26 12 14 1019.8 1019.4 0.0
09/12:30am 20.5 16.4 7.8 44 6.6 SSE 19 24 10 13 1019.9 1019.5 0.0
09/12:00am 21.1 16.9 8.4 44 6.7 SSE 20 28 11 15 1019.9 1019.5 0.0
 
Date/Time
CDT
Temp
°C
App
Temp
°C
Dew
Point
Rel
Hum
%
Delta-T
°C
Wind Press
QNH
hPa
Press
MSL
hPa
Rain
since 9 am
mm
Dir
 
Spd
km/h
Gust
km/h
Spd
kts
Gust
kts
08/11:30pm 21.8 17.4 9.0 44 6.8 S 22 28 12 15 1019.8 1019.4 0.0
08/11:00pm 22.8 18.3 8.5 40 7.6 S 22 28 12 15 1019.9 1019.5 0.0
08/10:30pm 23.9 18.9 7.9 36 8.5 S 24 32 13 17 1019.8 1019.4 0.0
08/10:00pm 24.6 19.4 7.3 33 9.1 S 24 32 13 17 1019.7 1019.3 0.0
08/09:30pm 25.1 20.5 5.8 29 9.9 S 19 22 10 12 1019.5 1019.1 0.0
08/09:00pm 25.5 20.9 3.5 24 10.9 S 17 19 9 10 1019.1 1018.7 0.0
08/08:30pm 27.0 21.9 2.8 21 11.9 S 19 22 10 12 1018.9 1018.5 0.0
08/08:00pm 28.8 23.5 2.1 18 13.2 S 19 24 10 13 1018.6 1018.2 0.0
08/07:30pm 30.3 24.3 -1.2 13 14.8 S 20 26 11 14 1018.4 1018.0 0.0
08/07:00pm 31.2 25.0 -0.5 13 15.2 S 22 30 12 16 1018.1 1017.7 0.0
08/06:30pm 31.9 26.3 0.1 13 15.5 S 19 30 10 16 1018.0 1017.6 0.0
08/06:00pm 32.3 26.9 2.4 15 15.1 SSW 20 30 11 16 1018.1 1017.7 0.0
08/05:30pm 31.9 26.6 2.1 15 15.0 SSW 19 28 10 15 1018.3 1017.9 0.0
08/05:00pm 31.9 27.1 4.6 18 14.3 S 19 32 10 17 1018.5 1018.1 0.0
08/04:30pm 32.0 27.8 5.5 19 14.1 S 17 24 9 13 1018.6 1018.2 0.0
08/04:00pm 31.3 26.9 6.4 21 13.4 SSW 19 32 10 17 1018.9 1018.5 0.0
08/03:30pm 31.0 26.7 6.8 22 13.1 S 19 30 10 16 1019.1 1018.7 0.0
08/03:00pm 30.5 26.4 7.7 24 12.5 SSW 19 28 10 15 1019.4 1019.0 0.0
08/02:30pm 29.9 25.6 7.8 25 12.1 S 20 30 11 16 1019.8 1019.4 0.0
08/02:00pm 28.9 25.2 8.0 27 11.4 S 17 28 9 15 1020.1 1019.7 0.0
08/01:30pm 28.2 23.8 9.0 30 10.6 S 22 35 12 19 1020.4 1020.0 0.0
08/01:00pm 27.1 23.2 9.5 33 9.8 S 20 32 11 17 1020.8 1020.4 0.0
08/12:30pm 27.2 23.4 11.3 37 9.1 S 22 33 12 18 1021.1 1020.7 0.0
08/12:00pm 26.3 22.6 11.6 40 8.4 S 22 32 12 17 1021.4 1021.0 0.0
08/11:30am 24.8 21.2 11.7 44 7.4 S 22 32 12 17 1021.6 1021.2 0.0
08/11:00am 24.0 19.8 12.3 48 6.7 S 26 33 14 18 1021.7 1021.3 0.0
08/10:30am 22.7 19.0 12.6 53 5.8 S 24 32 13 17 1021.7 1021.3 0.0
08/10:00am 21.2 17.6 12.9 59 4.7 S 24 33 13 18 1021.6 1021.2 0.0
08/09:30am 19.9 15.9 12.9 64 4.0 S 26 30 14 16 1021.6 1021.2 0.0
08/09:00am 18.9 15.4 13.3 70 3.2 S 24 32 13 17 1021.7 1021.3 0.0
08/08:30am 17.4 13.4 13.1 76 2.4 S 26 32 14 17 1021.4 1021.0 0.0
08/08:00am 15.9 12.3 13.0 83 1.6 S 24 32 13 17 1021.2 1020.8 0.0
08/07:30am 15.0 12.1 12.9 87 1.2 SSW 20 26 11 14 1020.9 1020.5 0.0
08/07:00am 14.6 11.9 12.8 89 1.0 S 19 22 10 12 1020.7 1020.3 0.0
08/06:30am 14.6 12.2 12.6 88 1.1 SSW 17 20 9 11 1020.4 1020.0 0.0
08/06:00am 15.0 13.0 12.7 86 1.3 SSW 15 19 8 10 1020.1 1019.7 0.0
08/05:30am 15.3 12.9 12.8 85 1.4 SSW 17 20 9 11 1019.8 1019.4 0.0
08/05:00am 15.7 13.0 13.0 84 1.5 S 19 20 10 11 1019.5 1019.1 0.0
08/04:30am 16.0 13.3 12.9 82 1.7 SSW 19 24 10 13 1019.5 1019.1 0.0
08/04:00am 16.2 13.2 12.7 80 1.9 SSW 20 22 11 12 1019.4 1019.0 0.0
08/03:30am 16.6 13.9 12.8 78 2.1 SSW 19 22 10 12 1019.3 1018.9 0.0
08/03:00am 16.9 14.9 12.6 76 2.4 SSW 15 17 8 9 1019.4 1019.0 0.0
08/02:30am 17.6 15.7 12.9 74 2.6 S 15 19 8 10 1019.3 1018.9 0.0
08/02:00am 17.5 15.5 12.8 74 2.6 SSW 15 19 8 10 1019.3 1018.9 0.0
08/01:30am 17.8 15.9 12.9 73 2.7 SSW 15 17 8 9 1019.4 1019.0 0.0
08/01:00am 18.1 15.8 13.0 72 2.9 SSW 17 19 9 10 1019.4 1019.0 0.0
08/12:30am 18.6 16.3 13.0 70 3.2 SW 17 22 9 12 1019.4 1019.0 0.0
08/12:00am 19.3 16.6 13.0 67 3.6 SW 19 22 10 12 1019.3 1018.9 0.0
 
Date/Time
CDT
Temp
°C
App
Temp
°C
Dew
Point
Rel
Hum
%
Delta-T
°C
Wind Press
QNH
hPa
Press
MSL
hPa
Rain
since 9 am
mm
Dir
 
Spd
km/h
Gust
km/h
Spd
kts
Gust
kts
07/11:30pm 19.9 17.2 12.9 64 4.0 SW 19 22 10 12 1019.1 1018.7 0.0

Other Formats:

Comma delimited format used in spreadsheet applications
http://www.bom.gov.au/fwo/IDS60801/IDS60801.94690.axf

JavaScript Object Notation format (JSON) in row-major order
http://www.bom.gov.au/fwo/IDS60801/IDS60801.94690.json